createdAt,value
2016-09-02T00:00:54.742Z,0
2016-09-02T00:01:55.478Z,0
2016-09-02T00:02:57.137Z,0
2016-09-02T00:03:56.939Z,0
2016-09-02T00:04:56.355Z,0
2016-09-02T00:05:55.578Z,0
2016-09-02T00:06:56.297Z,0
2016-09-02T00:07:56.358Z,0
2016-09-02T00:08:57.056Z,0
2016-09-02T00:09:55.637Z,0
2016-09-02T00:10:57.085Z,0
2016-09-02T00:11:55.778Z,0
2016-09-02T00:12:57.106Z,0
2016-09-02T00:13:56.426Z,0
2016-09-02T00:14:56.438Z,0
2016-09-02T00:15:55.822Z,0
2016-09-02T00:16:57.217Z,0
2016-09-02T00:17:56.707Z,0
2016-09-02T00:18:55.839Z,0
2016-09-02T00:19:55.837Z,0
2016-09-02T00:20:57.277Z,0
2016-09-02T00:21:56.607Z,0
2016-09-02T00:22:55.925Z,0
2016-09-02T00:23:56.677Z,0
2016-09-02T00:24:55.950Z,0
2016-09-02T00:25:57.377Z,0
2016-09-02T00:26:56.729Z,0
2016-09-02T00:27:56.717Z,0
2016-09-02T00:28:56.754Z,0
2016-09-02T00:29:56.071Z,0
2016-09-02T00:30:57.576Z,0
2016-09-02T00:31:57.501Z,0
2016-09-02T00:32:56.133Z,0
2016-09-02T00:33:57.529Z,0
2016-09-02T00:34:56.987Z,0
2016-09-02T00:35:56.198Z,0
2016-09-02T00:36:57.617Z,0
2016-09-02T00:37:56.289Z,0
2016-09-02T00:38:56.948Z,0
2016-09-02T00:39:57.714Z,0
2016-09-02T00:40:56.987Z,0
2016-09-02T00:41:57.025Z,0
2016-09-02T00:42:58.428Z,0
2016-09-02T00:43:57.045Z,0
2016-09-02T00:44:57.770Z,0
2016-09-02T00:45:57.080Z,0
2016-09-02T00:46:57.793Z,0
2016-09-02T00:47:57.134Z,0
2016-09-02T00:48:56.434Z,0
2016-09-02T00:49:56.462Z,0
2016-09-02T00:50:57.225Z,0
2016-09-02T00:51:57.233Z,0
2016-09-02T00:52:58.133Z,0
2016-09-02T00:53:57.241Z,0
2016-09-02T00:54:57.280Z,0
2016-09-02T00:55:58.006Z,0
2016-09-02T00:56:56.625Z,0
2016-09-02T00:57:57.333Z,0
2016-09-02T00:58:56.805Z,0
2016-09-02T00:59:58.086Z,0
2016-09-02T01:00:57.385Z,0
2016-09-02T01:01:55.999Z,0
2016-09-02T01:02:57.555Z,0
2016-09-02T01:03:57.804Z,0
2016-09-02T01:04:58.193Z,0
2016-09-02T01:05:57.556Z,0
2016-09-02T01:06:58.224Z,0
2016-09-02T01:07:57.606Z,0
2016-09-02T01:08:59.065Z,0
2016-09-02T01:09:57.659Z,0
2016-09-02T01:10:56.973Z,0
2016-09-02T01:11:58.318Z,0
2016-09-02T01:12:58.331Z,0
2016-09-02T01:13:57.045Z,0
2016-09-02T01:14:57.679Z,0
2016-09-02T01:15:57.683Z,0
2016-09-02T01:16:57.733Z,0
2016-09-02T01:17:57.775Z,0
2016-09-02T01:18:57.773Z,0
2016-09-02T01:19:58.473Z,0
2016-09-02T01:20:56.392Z,0
2016-09-02T01:21:58.553Z,0
2016-09-02T01:22:57.113Z,0
2016-09-02T01:23:57.333Z,0
2016-09-02T01:24:57.883Z,0
2016-09-02T01:25:57.273Z,0
2016-09-02T01:26:57.934Z,0
2016-09-02T01:27:58.035Z,0
2016-09-02T01:28:57.260Z,0
2016-09-02T01:29:57.314Z,0
2016-09-02T01:30:56.702Z,0
2016-09-02T01:31:58.080Z,0
2016-09-02T01:32:59.445Z,0
2016-09-02T01:33:58.073Z,0
2016-09-02T01:34:58.063Z,0
2016-09-02T01:35:58.102Z,0
2016-09-02T01:36:58.133Z,0
2016-09-02T01:37:58.124Z,0
2016-09-02T01:38:58.913Z,0
2016-09-02T01:39:57.472Z,0
2016-09-02T01:40:57.601Z,0
2016-09-02T01:41:58.933Z,0
2016-09-02T01:42:58.943Z,0
2016-09-02T01:43:57.548Z,0
2016-09-02T01:44:56.938Z,0
2016-09-02T01:45:57.004Z,0
2016-09-02T01:46:58.334Z,0
2016-09-02T01:47:57.732Z,0
2016-09-02T01:48:58.354Z,0
2016-09-02T01:49:58.523Z,0
2016-09-02T01:50:57.692Z,0
2016-09-02T01:51:59.821Z,0
2016-09-02T01:52:57.753Z,0
2016-09-02T01:53:58.522Z,0
2016-09-02T01:54:58.488Z,0
2016-09-02T01:55:59.231Z,0
2016-09-02T01:56:57.884Z,0
2016-09-02T01:57:59.265Z,0
2016-09-02T01:58:57.863Z,0
2016-09-02T02:00:00.066Z,0
2016-09-02T02:00:59.310Z,0
2016-09-02T02:01:59.364Z,0
2016-09-02T02:02:57.962Z,0
2016-09-02T02:03:58.694Z,0
2016-09-02T02:04:57.987Z,0
2016-09-02T02:05:57.295Z,0
2016-09-02T02:06:58.742Z,0
2016-09-02T02:07:59.462Z,0
2016-09-02T02:08:58.773Z,0
2016-09-02T02:09:59.512Z,0
2016-09-02T02:10:58.795Z,0
2016-09-02T02:11:58.852Z,0
2016-09-02T02:12:59.604Z,0
2016-09-02T02:13:58.925Z,0
2016-09-02T02:14:58.178Z,0
2016-09-02T02:15:59.032Z,0
2016-09-02T02:16:58.223Z,0
2016-09-02T02:17:58.274Z,0
2016-09-02T02:18:58.275Z,0
2016-09-02T02:20:00.497Z,0
2016-09-02T02:20:59.722Z,0
2016-09-02T02:21:59.782Z,0
2016-09-02T02:22:59.750Z,0
2016-09-02T02:23:58.358Z,0
2016-09-02T02:24:59.801Z,0
2016-09-02T02:25:59.812Z,0
2016-09-02T02:26:59.140Z,0
2016-09-02T02:27:59.159Z,0
2016-09-02T02:29:00.575Z,0
2016-09-02T02:29:59.197Z,0
2016-09-02T02:30:59.908Z,0
2016-09-02T02:31:59.928Z,0
2016-09-02T02:32:58.543Z,0
2016-09-02T02:33:57.858Z,0
2016-09-02T02:34:57.871Z,0
2016-09-02T02:35:59.318Z,0
2016-09-02T02:36:59.312Z,0
2016-09-02T02:37:58.763Z,0
2016-09-02T02:39:00.865Z,0
2016-09-02T02:39:59.431Z,0
2016-09-02T02:41:00.122Z,0
2016-09-02T02:42:00.121Z,0
2016-09-02T02:42:59.444Z,0
2016-09-02T02:43:58.761Z,0
2016-09-02T02:44:59.484Z,0
2016-09-02T02:46:00.433Z,0
2016-09-02T02:46:58.835Z,0
2016-09-02T02:48:01.135Z,0
2016-09-02T02:48:59.596Z,0
2016-09-02T02:49:59.599Z,0
2016-09-02T02:50:58.891Z,0
2016-09-02T02:51:59.637Z,0
2016-09-02T02:52:59.691Z,0
2016-09-02T02:54:00.362Z,0
2016-09-02T02:55:00.382Z,0
2016-09-02T02:55:58.985Z,0
2016-09-02T02:56:59.721Z,0
2016-09-02T02:57:59.754Z,0
2016-09-02T02:58:59.145Z,0
2016-09-02T02:59:59.783Z,0
2016-09-02T03:01:00.589Z,0
2016-09-02T03:02:00.512Z,0
2016-09-02T03:03:00.601Z,0
2016-09-02T03:03:59.857Z,0
2016-09-02T03:04:59.871Z,0
2016-09-02T03:06:00.153Z,0
2016-09-02T03:06:59.923Z,0
2016-09-02T03:08:00.057Z,0
2016-09-02T03:09:00.661Z,0
2016-09-02T03:09:59.313Z,0
2016-09-02T03:10:59.982Z,0
2016-09-02T03:12:00.802Z,0
2016-09-02T03:12:59.333Z,0
2016-09-02T03:14:01.503Z,0
2016-09-02T03:14:59.368Z,0
2016-09-02T03:16:00.121Z,0
2016-09-02T03:17:00.803Z,0
2016-09-02T03:18:00.122Z,0
2016-09-02T03:19:00.263Z,0
2016-09-02T03:20:00.869Z,0
2016-09-02T03:21:00.203Z,0
2016-09-02T03:22:00.923Z,0
2016-09-02T03:23:00.487Z,0
2016-09-02T03:23:59.549Z,0
2016-09-02T03:25:01.099Z,0
2016-09-02T03:25:59.574Z,0
2016-09-02T03:27:01.102Z,0
2016-09-02T03:27:59.021Z,0
2016-09-02T03:29:00.343Z,0
2016-09-02T03:30:01.077Z,0
2016-09-02T03:31:00.375Z,0
2016-09-02T03:32:01.118Z,0
2016-09-02T03:33:00.533Z,0
2016-09-02T03:34:00.463Z,0
2016-09-02T03:35:00.463Z,0
2016-09-02T03:36:00.573Z,0
2016-09-02T03:37:00.694Z,0
2016-09-02T03:38:32.252Z,0
2016-09-02T03:39:00.649Z,0
2016-09-02T03:39:59.851Z,0
2016-09-02T03:41:00.743Z,0
2016-09-02T03:42:01.391Z,0
2016-09-02T03:43:00.728Z,0
2016-09-02T03:43:59.965Z,0
2016-09-02T03:45:02.501Z,0
2016-09-02T03:46:00.025Z,0
2016-09-02T03:47:00.010Z,0
2016-09-02T03:48:00.961Z,0
2016-09-02T03:49:01.443Z,0
2016-09-02T03:50:00.145Z,0
2016-09-02T03:51:00.779Z,0
2016-09-02T03:52:01.483Z,0
2016-09-02T03:53:00.821Z,0
2016-09-02T03:54:00.145Z,0
2016-09-02T03:54:59.441Z,0
2016-09-02T03:56:00.874Z,0
2016-09-02T03:57:01.636Z,0
2016-09-02T03:58:00.273Z,0
2016-09-02T03:59:01.634Z,0
2016-09-02T04:00:01.705Z,0
2016-09-02T04:00:59.562Z,0
2016-09-02T04:02:00.292Z,0
2016-09-02T04:03:01.005Z,0
2016-09-02T04:04:00.367Z,0
2016-09-02T04:05:00.343Z,0
2016-09-02T04:06:01.778Z,0
2016-09-02T04:07:00.451Z,0
2016-09-02T04:08:01.824Z,0
2016-09-02T04:09:01.963Z,0
2016-09-02T04:10:01.873Z,0
2016-09-02T04:11:01.868Z,0
2016-09-02T04:12:01.183Z,0
2016-09-02T04:13:02.675Z,0
2016-09-02T04:13:59.803Z,0
2016-09-02T04:15:00.524Z,0
2016-09-02T04:16:01.384Z,0
2016-09-02T04:17:01.281Z,0
2016-09-02T04:18:00.623Z,0
2016-09-02T04:19:00.616Z,0
2016-09-02T04:20:02.073Z,0
2016-09-02T04:21:02.063Z,0
2016-09-02T04:21:59.964Z,0
2016-09-02T04:23:00.788Z,0
2016-09-02T04:24:00.714Z,0
2016-09-02T04:25:02.850Z,5
2016-09-02T04:26:01.463Z,5
2016-09-02T04:27:01.481Z,5
2016-09-02T04:28:02.212Z,5
2016-09-02T04:29:01.588Z,5
2016-09-02T04:30:00.273Z,10
2016-09-02T04:31:01.012Z,10
2016-09-02T04:32:02.294Z,10
2016-09-02T04:33:01.602Z,10
2016-09-02T04:34:02.327Z,10
2016-09-02T04:35:01.638Z,15
2016-09-02T04:36:02.361Z,15
2016-09-02T04:37:01.738Z,15
2016-09-02T04:38:02.404Z,15
2016-09-02T04:39:02.642Z,15
2016-09-02T04:40:02.451Z,20
2016-09-02T04:41:01.089Z,20
2016-09-02T04:42:02.005Z,20
2016-09-02T04:43:01.146Z,25
2016-09-02T04:44:01.817Z,30
2016-09-02T04:45:02.566Z,30
2016-09-02T04:46:01.847Z,35
2016-09-02T04:47:01.191Z,35
2016-09-02T04:48:02.029Z,35
2016-09-02T04:49:01.899Z,40
2016-09-02T04:50:02.066Z,40
2016-09-02T04:51:01.323Z,40
2016-09-02T04:52:02.763Z,45
2016-09-02T04:53:01.307Z,50
2016-09-02T04:54:02.011Z,50
2016-09-02T04:55:02.754Z,55
2016-09-02T04:56:02.062Z,60
2016-09-02T04:57:02.089Z,60
2016-09-02T04:58:02.803Z,60
2016-09-02T04:59:02.113Z,60
2016-09-02T05:00:02.834Z,65
2016-09-02T05:01:02.953Z,70
2016-09-02T05:02:02.164Z,70
2016-09-02T05:03:03.127Z,75
2016-09-02T05:04:01.539Z,70
2016-09-02T05:05:02.382Z,70
2016-09-02T05:06:02.260Z,70
2016-09-02T05:07:02.284Z,75
2016-09-02T05:08:01.578Z,75
2016-09-02T05:09:01.612Z,80
2016-09-02T05:10:02.430Z,80
2016-09-02T05:11:02.353Z,85
2016-09-02T05:12:03.065Z,85
2016-09-02T05:13:02.398Z,85
2016-09-02T05:14:03.130Z,80
2016-09-02T05:15:03.153Z,80
2016-09-02T05:16:02.644Z,80
2016-09-02T05:17:03.178Z,75
2016-09-02T05:18:03.230Z,70
2016-09-02T05:19:03.224Z,70
2016-09-02T05:20:01.835Z,70
2016-09-02T05:21:03.966Z,75
2016-09-02T05:22:02.594Z,75
2016-09-02T05:23:02.692Z,80
2016-09-02T05:24:01.914Z,85
2016-09-02T05:25:02.715Z,90
2016-09-02T05:26:01.251Z,95
2016-09-02T05:27:01.982Z,105
2016-09-02T05:28:01.993Z,115
2016-09-02T05:29:02.863Z,120
2016-09-02T05:30:02.784Z,125
2016-09-02T05:31:02.062Z,130
2016-09-02T05:32:02.801Z,130
2016-09-02T05:33:04.240Z,130
2016-09-02T05:34:03.527Z,130
2016-09-02T05:35:02.857Z,135
2016-09-02T05:36:02.893Z,135
2016-09-02T05:37:03.621Z,135
2016-09-02T05:38:04.327Z,135
2016-09-02T05:39:02.942Z,135
2016-09-02T05:40:03.074Z,135
2016-09-02T05:41:03.704Z,135
2016-09-02T05:42:03.719Z,140
2016-09-02T05:43:03.079Z,145
2016-09-02T05:44:04.065Z,150
2016-09-02T05:45:03.053Z,150
2016-09-02T05:46:02.472Z,145
2016-09-02T05:47:03.094Z,140
2016-09-02T05:48:02.432Z,130
2016-09-02T05:49:03.156Z,125
2016-09-02T05:50:03.183Z,120
2016-09-02T05:51:03.897Z,125
2016-09-02T05:52:03.300Z,125
2016-09-02T05:53:02.524Z,130
2016-09-02T05:54:03.267Z,140
2016-09-02T05:55:01.864Z,225
2016-09-02T05:56:02.691Z,160
2016-09-02T05:57:03.402Z,465
2016-09-02T05:58:03.364Z,205
2016-09-02T05:59:03.365Z,145
2016-09-02T06:00:03.514Z,180
2016-09-02T06:01:02.767Z,230
2016-09-02T06:02:04.203Z,290
2016-09-02T06:03:04.184Z,230
2016-09-02T06:04:03.473Z,205
2016-09-02T06:05:02.831Z,205
2016-09-02T06:06:04.822Z,215
2016-09-02T06:07:02.892Z,220
2016-09-02T06:08:03.583Z,220
2016-09-02T06:09:02.982Z,225
2016-09-02T06:10:04.575Z,225
2016-09-02T06:11:03.656Z,230
2016-09-02T06:12:04.495Z,230
2016-09-02T06:13:03.674Z,230
2016-09-02T06:14:03.885Z,220
2016-09-02T06:15:04.644Z,215
2016-09-02T06:16:03.053Z,210
2016-09-02T06:17:05.197Z,205
2016-09-02T06:18:03.887Z,205
2016-09-02T06:19:03.084Z,225
2016-09-02T06:20:05.289Z,290
2016-09-02T06:21:03.176Z,230
2016-09-02T06:22:04.595Z,255
2016-09-02T06:23:03.975Z,275
2016-09-02T06:24:04.004Z,585
2016-09-02T06:25:03.505Z,280
2016-09-02T06:26:03.394Z,305
2016-09-02T06:27:05.424Z,320
2016-09-02T06:28:03.430Z,370
2016-09-02T06:29:04.054Z,440
2016-09-02T06:30:04.785Z,1080
2016-09-02T06:31:03.403Z,750
2016-09-02T06:32:04.116Z,805
2016-09-02T06:33:04.144Z,520
2016-09-02T06:34:03.484Z,705
2016-09-02T06:35:04.764Z,820
2016-09-02T06:36:03.527Z,775
2016-09-02T06:37:02.885Z,670
2016-09-02T06:38:04.289Z,655
2016-09-02T06:39:03.025Z,1005
2016-09-02T06:40:04.315Z,620
2016-09-02T06:41:04.399Z,730
2016-09-02T06:42:05.086Z,480
2016-09-02T06:43:04.484Z,535
2016-09-02T06:44:05.173Z,1340
2016-09-02T06:45:03.045Z,1245
2016-09-02T06:46:04.072Z,955
2016-09-02T06:47:05.221Z,735
2016-09-02T06:48:03.903Z,920
2016-09-02T06:49:04.675Z,935
2016-09-02T06:50:04.042Z,1040
2016-09-02T06:51:04.745Z,745
2016-09-02T06:52:03.410Z,860
2016-09-02T06:53:04.896Z,620
2016-09-02T06:54:04.725Z,810
2016-09-02T06:55:06.152Z,855
2016-09-02T06:56:04.036Z,765
2016-09-02T06:57:04.792Z,890
2016-09-02T06:58:03.395Z,830
2016-09-02T06:59:04.129Z,845
2016-09-02T07:00:04.241Z,965
2016-09-02T07:01:04.294Z,940
2016-09-02T07:02:05.635Z,950
2016-09-02T07:03:04.285Z,945
2016-09-02T07:04:04.993Z,920
2016-09-02T07:05:04.997Z,975
2016-09-02T07:06:04.325Z,1095
2016-09-02T07:07:04.374Z,1085
2016-09-02T07:08:06.492Z,1000
2016-09-02T07:09:05.110Z,1100
2016-09-02T07:10:05.970Z,970
2016-09-02T07:11:05.884Z,690
2016-09-02T07:12:04.573Z,790
2016-09-02T07:13:03.840Z,1005
2016-09-02T07:14:04.550Z,1035
2016-09-02T07:15:05.989Z,945
2016-09-02T07:16:06.057Z,800
2016-09-02T07:17:05.373Z,855
2016-09-02T07:18:06.085Z,895
2016-09-02T07:19:05.403Z,725
2016-09-02T07:20:05.434Z,690
2016-09-02T07:21:06.294Z,730
2016-09-02T07:22:06.225Z,735
2016-09-02T07:23:04.825Z,805
2016-09-02T07:24:06.278Z,760
2016-09-02T07:25:04.250Z,715
2016-09-02T07:26:05.663Z,850
2016-09-02T07:27:05.622Z,740
2016-09-02T07:28:04.969Z,645
2016-09-02T07:29:05.706Z,575
2016-09-02T07:30:05.013Z,550
2016-09-02T07:31:05.745Z,760
2016-09-02T07:32:05.089Z,610
2016-09-02T07:33:05.854Z,540
2016-09-02T07:34:05.155Z,485
2016-09-02T07:35:06.667Z,615
2016-09-02T07:36:05.915Z,960
2016-09-02T07:37:05.295Z,985
2016-09-02T07:38:06.682Z,615
2016-09-02T07:39:05.325Z,565
2016-09-02T07:40:07.436Z,420
2016-09-02T07:41:06.083Z,410
2016-09-02T07:42:04.663Z,405
2016-09-02T07:43:06.855Z,405
2016-09-02T07:44:05.423Z,415
2016-09-02T07:45:06.244Z,440
2016-09-02T07:46:06.211Z,415
2016-09-02T07:47:05.621Z,410
2016-09-02T07:48:06.296Z,375
2016-09-02T07:49:05.560Z,375
2016-09-02T07:50:07.724Z,380
2016-09-02T07:51:05.630Z,385
2016-09-02T07:52:07.263Z,415
2016-09-02T07:53:07.245Z,440
2016-09-02T07:54:06.464Z,455
2016-09-02T07:55:06.448Z,485
2016-09-02T07:56:07.225Z,510
2016-09-02T07:57:06.616Z,535
2016-09-02T07:58:07.252Z,555
2016-09-02T07:59:07.273Z,545
2016-09-02T08:00:06.595Z,530
2016-09-02T08:01:08.064Z,510
2016-09-02T08:02:07.350Z,490
2016-09-02T08:03:06.753Z,475
2016-09-02T08:04:06.713Z,455
2016-09-02T08:05:06.022Z,440
2016-09-02T08:06:06.738Z,430
2016-09-02T08:07:06.769Z,410
2016-09-02T08:08:06.792Z,415
2016-09-02T08:09:08.339Z,410
2016-09-02T08:10:06.234Z,410
2016-09-02T08:11:06.885Z,400
2016-09-02T08:12:06.992Z,405
2016-09-02T08:13:07.646Z,415
2016-09-02T08:14:06.354Z,420
2016-09-02T08:15:07.722Z,425
2016-09-02T08:16:07.061Z,445
2016-09-02T08:17:07.031Z,440
2016-09-02T08:18:06.349Z,445
2016-09-02T08:19:08.502Z,445
2016-09-02T08:20:07.108Z,440
2016-09-02T08:21:07.923Z,445
2016-09-02T08:22:06.708Z,425
2016-09-02T08:23:08.072Z,420
2016-09-02T08:24:07.478Z,410
2016-09-02T08:25:06.667Z,410
2016-09-02T08:26:07.469Z,415
2016-09-02T08:27:07.414Z,420
2016-09-02T08:28:07.493Z,415
2016-09-02T08:29:06.757Z,420
2016-09-02T08:30:06.752Z,445
2016-09-02T08:31:08.147Z,480
2016-09-02T08:32:08.249Z,490
2016-09-02T08:33:07.487Z,485
2016-09-02T08:34:06.804Z,475
2016-09-02T08:35:07.883Z,470
2016-09-02T08:36:07.653Z,465
2016-09-02T08:37:07.661Z,470
2016-09-02T08:38:08.387Z,470
2016-09-02T08:39:08.497Z,485
2016-09-02T08:40:08.442Z,480
2016-09-02T08:41:07.005Z,480
2016-09-02T08:42:07.724Z,480
2016-09-02T08:43:07.044Z,490
2016-09-02T08:44:08.565Z,490
2016-09-02T08:45:08.765Z,490
2016-09-02T08:46:08.538Z,485
2016-09-02T08:47:07.864Z,460
2016-09-02T08:48:08.590Z,445
2016-09-02T08:49:08.655Z,445
2016-09-02T08:50:09.050Z,460
2016-09-02T08:51:08.022Z,515
2016-09-02T08:52:08.743Z,525
2016-09-02T08:53:06.614Z,520
2016-09-02T08:54:09.563Z,495
2016-09-02T08:55:08.082Z,520
2016-09-02T08:56:08.118Z,525
2016-09-02T08:57:08.129Z,540
2016-09-02T08:58:07.567Z,560
2016-09-02T08:59:08.916Z,560
2016-09-02T09:00:07.612Z,530
2016-09-02T09:01:09.673Z,545
2016-09-02T09:02:08.989Z,570
2016-09-02T09:03:07.617Z,595
2016-09-02T09:04:09.028Z,585
2016-09-02T09:05:09.960Z,610
2016-09-02T09:06:09.104Z,625
2016-09-02T09:07:08.442Z,625
2016-09-02T09:08:09.884Z,635
2016-09-02T09:09:07.053Z,615
2016-09-02T09:10:07.905Z,605
2016-09-02T09:11:07.907Z,610
2016-09-02T09:12:09.393Z,590
2016-09-02T09:13:08.580Z,565
2016-09-02T09:14:08.745Z,550
2016-09-02T09:15:08.353Z,525
2016-09-02T09:16:07.267Z,520
2016-09-02T09:17:07.997Z,510
2016-09-02T09:18:09.480Z,500
2016-09-02T09:19:10.172Z,475
2016-09-02T09:20:08.842Z,465
2016-09-02T09:21:09.521Z,460
2016-09-02T09:22:08.864Z,450
2016-09-02T09:23:08.170Z,435
2016-09-02T09:24:08.916Z,410
2016-09-02T09:25:08.935Z,380
2016-09-02T09:26:09.651Z,350
2016-09-02T09:27:08.981Z,330
2016-09-02T09:28:10.424Z,315
2016-09-02T09:29:08.322Z,305
2016-09-02T09:30:09.292Z,305
2016-09-02T09:31:09.771Z,310
2016-09-02T09:32:08.426Z,310
2016-09-02T09:33:09.247Z,325
2016-09-02T09:34:08.460Z,340
2016-09-02T09:35:08.181Z,360
2016-09-02T09:36:09.366Z,370
2016-09-02T09:37:09.342Z,385
2016-09-02T09:38:08.582Z,395
2016-09-02T09:39:07.973Z,395
2016-09-02T09:40:10.074Z,410
2016-09-02T09:41:08.670Z,420
2016-09-02T09:42:08.071Z,420
2016-09-02T09:43:10.218Z,410
2016-09-02T09:44:09.431Z,415
2016-09-02T09:45:09.480Z,420
2016-09-02T09:46:10.922Z,430
2016-09-02T09:47:10.331Z,465
2016-09-02T09:48:09.572Z,505
2016-09-02T09:49:10.340Z,520
2016-09-02T09:50:09.940Z,520
2016-09-02T09:51:11.082Z,520
2016-09-02T09:52:10.490Z,520
2016-09-02T09:53:08.385Z,515
2016-09-02T09:54:09.805Z,520
2016-09-02T09:55:09.064Z,535
2016-09-02T09:56:08.367Z,545
2016-09-02T09:57:09.109Z,565
2016-09-02T09:58:09.840Z,560
2016-09-02T09:59:09.873Z,565
2016-09-02T10:00:09.190Z,570
2016-09-02T10:01:09.317Z,570
2016-09-02T10:02:10.808Z,575
2016-09-02T10:03:10.672Z,580
2016-09-02T10:04:10.109Z,590
2016-09-02T10:05:10.162Z,590
2016-09-02T10:06:08.651Z,580
2016-09-02T10:07:09.442Z,570
2016-09-02T10:08:09.501Z,575
2016-09-02T10:09:10.902Z,585
2016-09-02T10:10:10.221Z,585
2016-09-02T10:11:09.571Z,570
2016-09-02T10:12:10.210Z,560
2016-09-02T10:13:09.555Z,565
2016-09-02T10:14:10.311Z,545
2016-09-02T10:15:09.610Z,545
2016-09-02T10:16:09.686Z,535
2016-09-02T10:17:11.075Z,545
2016-09-02T10:18:10.421Z,535
2016-09-02T10:19:09.801Z,535
2016-09-02T10:20:11.357Z,545
2016-09-02T10:21:11.191Z,525
2016-09-02T10:22:10.495Z,520
2016-09-02T10:23:10.644Z,530
2016-09-02T10:24:09.862Z,530
2016-09-02T10:25:10.742Z,535
2016-09-02T10:26:11.342Z,545
2016-09-02T10:27:11.435Z,550
2016-09-02T10:28:09.961Z,570
2016-09-02T10:29:10.721Z,565
2016-09-02T10:30:10.757Z,565
2016-09-02T10:31:09.355Z,575
2016-09-02T10:32:11.003Z,580
2016-09-02T10:33:11.522Z,585
2016-09-02T10:34:10.974Z,590
2016-09-02T10:35:11.583Z,590
2016-09-02T10:36:12.335Z,585
2016-09-02T10:37:11.640Z,590
2016-09-02T10:38:12.522Z,595
2016-09-02T10:39:10.371Z,595
2016-09-02T10:40:11.822Z,595
2016-09-02T10:41:11.743Z,595
2016-09-02T10:42:10.370Z,610
2016-09-02T10:43:11.287Z,620
2016-09-02T10:44:11.140Z,615
2016-09-02T10:45:09.755Z,615
2016-09-02T10:46:10.472Z,595
2016-09-02T10:47:11.943Z,585
2016-09-02T10:48:11.285Z,560
2016-09-02T10:49:12.082Z,555
2016-09-02T10:50:09.915Z,540
2016-09-02T10:51:11.369Z,530
2016-09-02T10:52:11.430Z,515
2016-09-02T10:53:11.424Z,505
2016-09-02T10:54:10.846Z,510
2016-09-02T10:55:11.465Z,515
2016-09-02T10:56:11.528Z,550
2016-09-02T10:57:12.222Z,530
2016-09-02T10:58:11.632Z,550
2016-09-02T10:59:12.982Z,520
2016-09-02T11:00:12.258Z,525
2016-09-02T11:01:12.344Z,545
2016-09-02T11:02:10.948Z,555
2016-09-02T11:03:11.697Z,560
2016-09-02T11:04:12.432Z,560
2016-09-02T11:05:11.764Z,555
2016-09-02T11:06:11.788Z,530
2016-09-02T11:07:12.681Z,510
2016-09-02T11:08:11.157Z,505
2016-09-02T11:09:11.169Z,510
2016-09-02T11:10:12.612Z,515
2016-09-02T11:11:11.919Z,525
2016-09-02T11:12:10.685Z,530
2016-09-02T11:13:11.973Z,530
2016-09-02T11:14:12.013Z,530
2016-09-02T11:15:12.748Z,530
2016-09-02T11:16:10.820Z,530
2016-09-02T11:17:11.384Z,530
2016-09-02T11:18:11.437Z,530
2016-09-02T11:19:12.162Z,530
2016-09-02T11:20:11.517Z,505
2016-09-02T11:21:12.222Z,490
2016-09-02T11:22:11.652Z,490
2016-09-02T11:23:12.292Z,480
2016-09-02T11:24:13.144Z,485
2016-09-02T11:25:11.613Z,480
2016-09-02T11:26:13.054Z,460
2016-09-02T11:27:13.809Z,450
2016-09-02T11:28:13.854Z,455
2016-09-02T11:29:11.854Z,455
2016-09-02T11:30:12.477Z,450
2016-09-02T11:31:13.284Z,435
2016-09-02T11:32:11.940Z,425
2016-09-02T11:33:11.863Z,415
2016-09-02T11:34:13.296Z,405
2016-09-02T11:35:14.480Z,405
2016-09-02T11:36:13.502Z,405
2016-09-02T11:37:11.262Z,420
2016-09-02T11:38:12.724Z,435
2016-09-02T11:39:11.492Z,455
2016-09-02T11:40:14.805Z,475
2016-09-02T11:41:12.784Z,490
2016-09-02T11:42:12.114Z,505
2016-09-02T11:43:12.941Z,515
2016-09-02T11:44:12.180Z,500
2016-09-02T11:45:13.633Z,480
2016-09-02T11:46:12.306Z,475
2016-09-02T11:47:13.705Z,460
2016-09-02T11:48:14.444Z,430
2016-09-02T11:49:12.324Z,405
2016-09-02T11:50:13.905Z,385
2016-09-02T11:51:13.103Z,380
2016-09-02T11:52:12.434Z,365
2016-09-02T11:53:14.598Z,345
2016-09-02T11:54:13.185Z,340
2016-09-02T11:55:14.055Z,365
2016-09-02T11:56:12.572Z,340
2016-09-02T11:57:14.213Z,360
2016-09-02T11:58:13.288Z,355
2016-09-02T11:59:13.364Z,345
2016-09-02T12:00:13.348Z,350
2016-09-02T12:01:12.653Z,335
2016-09-02T12:02:12.695Z,320
2016-09-02T12:03:13.828Z,305
2016-09-02T12:04:14.883Z,300
2016-09-02T12:05:13.826Z,310
2016-09-02T12:06:14.234Z,340
2016-09-02T12:07:14.252Z,380
2016-09-02T12:08:12.225Z,420
2016-09-02T12:09:14.355Z,455
2016-09-02T12:10:13.703Z,455
2016-09-02T12:11:12.952Z,440
2016-09-02T12:12:14.405Z,415
2016-09-02T12:13:14.523Z,380
2016-09-02T12:14:14.453Z,380
2016-09-02T12:15:13.773Z,395
2016-09-02T12:16:15.226Z,395
2016-09-02T12:17:13.822Z,415
2016-09-02T12:18:13.947Z,380
2016-09-02T12:19:13.180Z,375
2016-09-02T12:20:14.745Z,395
2016-09-02T12:21:13.245Z,385
2016-09-02T12:22:15.549Z,405
2016-09-02T12:23:13.406Z,430
2016-09-02T12:24:14.762Z,425
2016-09-02T12:25:14.112Z,430
2016-09-02T12:26:15.555Z,425
2016-09-02T12:27:13.483Z,420
2016-09-02T12:28:13.431Z,415
2016-09-02T12:29:14.174Z,400
2016-09-02T12:30:15.670Z,375
2016-09-02T12:31:15.187Z,355
2016-09-02T12:32:15.688Z,345
2016-09-02T12:33:14.271Z,335
2016-09-02T12:34:15.722Z,325
2016-09-02T12:35:14.353Z,320
2016-09-02T12:36:15.064Z,320
2016-09-02T12:37:14.684Z,320
2016-09-02T12:38:15.889Z,315
2016-09-02T12:39:13.857Z,315
2016-09-02T12:40:14.561Z,310
2016-09-02T12:41:15.222Z,315
2016-09-02T12:42:13.844Z,320
2016-09-02T12:43:14.554Z,320
2016-09-02T12:44:14.019Z,320
2016-09-02T12:45:15.035Z,335
2016-09-02T12:46:15.362Z,330
2016-09-02T12:47:14.119Z,330
2016-09-02T12:48:15.524Z,325
2016-09-02T12:49:15.559Z,315
2016-09-02T12:50:15.588Z,310
2016-09-02T12:51:14.803Z,315
2016-09-02T12:52:15.572Z,315
2016-09-02T12:53:16.384Z,325
2016-09-02T12:54:14.908Z,340
2016-09-02T12:55:13.572Z,335
2016-09-02T12:56:15.033Z,340
2016-09-02T12:57:14.244Z,335
2016-09-02T12:58:14.983Z,335
2016-09-02T12:59:15.726Z,340
2016-09-02T13:00:15.165Z,345
2016-09-02T13:01:15.788Z,350
2016-09-02T13:02:15.176Z,360
2016-09-02T13:03:15.123Z,370
2016-09-02T13:04:15.321Z,385
2016-09-02T13:05:15.214Z,395
2016-09-02T13:06:15.201Z,405
2016-09-02T13:07:14.621Z,410
2016-09-02T13:08:14.754Z,410
2016-09-02T13:09:14.586Z,415
2016-09-02T13:10:16.107Z,420
2016-09-02T13:11:16.106Z,425
2016-09-02T13:12:16.108Z,435
2016-09-02T13:13:16.944Z,445
2016-09-02T13:14:15.467Z,450
2016-09-02T13:15:15.484Z,450
2016-09-02T13:16:16.219Z,450
2016-09-02T13:17:16.264Z,445
2016-09-02T13:18:16.289Z,440
2016-09-02T13:19:15.604Z,445
2016-09-02T13:20:16.362Z,430
2016-09-02T13:21:15.044Z,425
2016-09-02T13:22:15.655Z,425
2016-09-02T13:23:16.393Z,435
2016-09-02T13:24:15.815Z,440
2016-09-02T13:25:15.150Z,450
2016-09-02T13:26:15.789Z,455
2016-09-02T13:27:15.202Z,460
2016-09-02T13:28:16.589Z,480
2016-09-02T13:29:15.156Z,485
2016-09-02T13:30:16.653Z,470
2016-09-02T13:31:16.643Z,455
2016-09-02T13:32:16.692Z,440
2016-09-02T13:33:16.755Z,430
2016-09-02T13:34:16.742Z,415
2016-09-02T13:35:16.032Z,410
2016-09-02T13:36:15.555Z,400
2016-09-02T13:37:16.191Z,390
2016-09-02T13:38:15.413Z,365
2016-09-02T13:39:16.860Z,355
2016-09-02T13:40:15.737Z,350
2016-09-02T13:41:14.874Z,355
2016-09-02T13:42:17.062Z,360
2016-09-02T13:43:16.444Z,375
2016-09-02T13:44:15.603Z,395
2016-09-02T13:45:15.650Z,405
2016-09-02T13:46:15.676Z,420
2016-09-02T13:47:17.136Z,420
2016-09-02T13:48:17.111Z,420
2016-09-02T13:49:16.535Z,415
2016-09-02T13:50:17.914Z,415
2016-09-02T13:51:15.843Z,405
2016-09-02T13:52:17.266Z,405
2016-09-02T13:53:17.300Z,415
2016-09-02T13:54:16.633Z,430
2016-09-02T13:55:17.474Z,430
2016-09-02T13:56:17.524Z,435
2016-09-02T13:57:17.599Z,435
2016-09-02T13:58:15.380Z,435
2016-09-02T13:59:17.473Z,435
2016-09-02T14:00:16.785Z,435
2016-09-02T14:01:16.843Z,420
2016-09-02T14:02:16.144Z,405
2016-09-02T14:03:16.874Z,390
2016-09-02T14:04:17.678Z,375
2016-09-02T14:05:18.685Z,375
2016-09-02T14:06:17.670Z,385
2016-09-02T14:07:18.405Z,395